sensor_id;sensor_type;location;lat;lon;timestamp;pressure;altitude;pressure_sealevel;temperature;humidity
11648;BME280;5880;52.342;9.662;2023-07-22T00:01:01;100640.56;;;20.18;47.18
11648;BME280;5880;52.342;9.662;2023-07-22T00:03:27;100649.22;;;20.16;47.29
11648;BME280;5880;52.342;9.662;2023-07-22T00:06:08;100638.41;;;20.15;47.21
11648;BME280;5880;52.342;9.662;2023-07-22T00:08:35;100637.88;;;20.13;47.11
11648;BME280;5880;52.342;9.662;2023-07-22T00:11:01;100633.75;;;20.10;47.34
11648;BME280;5880;52.342;9.662;2023-07-22T00:13:27;100625.78;;;20.03;47.43
11648;BME280;5880;52.342;9.662;2023-07-22T00:15:54;100632.38;;;20.08;47.39
11648;BME280;5880;52.342;9.662;2023-07-22T00:18:19;100634.41;;;20.02;47.34
11648;BME280;5880;52.342;9.662;2023-07-22T00:20:45;100636.88;;;20.03;47.41
11648;BME280;5880;52.342;9.662;2023-07-22T00:23:11;100644.91;;;20.05;47.50
11648;BME280;5880;52.342;9.662;2023-07-22T00:25:37;100652.97;;;20.01;47.49
11648;BME280;5880;52.342;9.662;2023-07-22T00:28:02;100646.59;;;20.01;47.69
11648;BME280;5880;52.342;9.662;2023-07-22T00:30:29;100653.28;;;20.00;47.86
11648;BME280;5880;52.342;9.662;2023-07-22T00:32:55;100651.63;;;19.99;47.42
11648;BME280;5880;52.342;9.662;2023-07-22T00:35:21;100645.25;;;19.98;47.56
11648;BME280;5880;52.342;9.662;2023-07-22T00:37:47;100643.38;;;19.94;47.44
11648;BME280;5880;52.342;9.662;2023-07-22T00:40:12;100641.13;;;19.96;47.69
11648;BME280;5880;52.342;9.662;2023-07-22T00:42:41;100650.25;;;19.96;47.47
11648;BME280;5880;52.342;9.662;2023-07-22T00:45:07;100648.63;;;19.95;47.70
11648;BME280;5880;52.342;9.662;2023-07-22T00:47:35;100648.91;;;19.94;47.44
11648;BME280;5880;52.342;9.662;2023-07-22T00:50:07;100651.69;;;19.94;47.77
11648;BME280;5880;52.342;9.662;2023-07-22T00:52:40;100646.41;;;19.92;47.46
11648;BME280;5880;52.342;9.662;2023-07-22T00:55:06;100640.66;;;19.89;47.73
11648;BME280;5880;52.342;9.662;2023-07-22T00:57:32;100644.53;;;19.88;47.57
11648;BME280;5880;52.342;9.662;2023-07-22T00:59:58;100644.03;;;19.86;47.89
11648;BME280;5880;52.342;9.662;2023-07-22T01:02:24;100639.59;;;19.85;47.70
11648;BME280;5880;52.342;9.662;2023-07-22T01:04:50;100640.41;;;19.85;47.74
11648;BME280;5880;52.342;9.662;2023-07-22T01:07:17;100642.66;;;19.83;48.10
11648;BME280;5880;52.342;9.662;2023-07-22T01:09:44;100643.50;;;19.84;47.97
11648;BME280;5880;52.342;9.662;2023-07-22T01:12:11;100644.59;;;19.82;48.01
11648;BME280;5880;52.342;9.662;2023-07-22T01:14:39;100641.00;;;19.82;48.17
11648;BME280;5880;52.342;9.662;2023-07-22T01:17:08;100637.47;;;19.76;47.94
11648;BME280;5880;52.342;9.662;2023-07-22T01:19:35;100639.63;;;19.79;47.91
11648;BME280;5880;52.342;9.662;2023-07-22T01:22:06;100642.13;;;19.81;48.12
11648;BME280;5880;52.342;9.662;2023-07-22T01:24:33;100647.69;;;19.81;47.89
11648;BME280;5880;52.342;9.662;2023-07-22T01:27:00;100638.00;;;19.78;47.95
11648;BME280;5880;52.342;9.662;2023-07-22T01:29:26;100627.78;;;19.74;48.15
11648;BME280;5880;52.342;9.662;2023-07-22T01:31:54;100637.69;;;19.80;48.04
11648;BME280;5880;52.342;9.662;2023-07-22T01:34:21;100638.81;;;19.79;47.98
11648;BME280;5880;52.342;9.662;2023-07-22T01:36:48;100637.47;;;19.76;47.83
11648;BME280;5880;52.342;9.662;2023-07-22T01:39:15;100637.47;;;19.76;47.99
11648;BME280;5880;52.342;9.662;2023-07-22T01:41:42;100628.06;;;19.72;48.19
11648;BME280;5880;52.342;9.662;2023-07-22T01:44:08;100622.81;;;19.71;48.17
11648;BME280;5880;52.342;9.662;2023-07-22T01:46:34;100627.53;;;19.70;48.13
11648;BME280;5880;52.342;9.662;2023-07-22T01:49:03;100631.13;;;19.71;47.99
11648;BME280;5880;52.342;9.662;2023-07-22T01:51:29;100638.63;;;19.70;48.17
11648;BME280;5880;52.342;9.662;2023-07-22T01:53:54;100633.91;;;19.71;48.11
11648;BME280;5880;52.342;9.662;2023-07-22T01:56:22;100630.06;;;19.67;48.23
11648;BME280;5880;52.342;9.662;2023-07-22T01:58:48;100625.91;;;19.69;48.25
11648;BME280;5880;52.342;9.662;2023-07-22T02:01:14;100628.91;;;19.68;48.27
11648;BME280;5880;52.342;9.662;2023-07-22T02:03:42;100631.97;;;19.66;48.07
11648;BME280;5880;52.342;9.662;2023-07-22T02:06:08;100631.97;;;19.66;48.09
11648;BME280;5880;52.342;9.662;2023-07-22T02:08:33;100633.41;;;19.64;48.22
11648;BME280;5880;52.342;9.662;2023-07-22T02:11:05;100627.56;;;19.65;48.33
11648;BME280;5880;52.342;9.662;2023-07-22T02:13:33;100637.28;;;19.63;48.14
11648;BME280;5880;52.342;9.662;2023-07-22T02:16:00;100636.47;;;19.62;48.14
11648;BME280;5880;52.342;9.662;2023-07-22T02:18:26;100636.47;;;19.62;48.28
11648;BME280;5880;52.342;9.662;2023-07-22T02:20:53;100643.13;;;19.61;48.31
11648;BME280;5880;52.342;9.662;2023-07-22T02:23:19;100639.28;;;19.57;48.23
11648;BME280;5880;52.342;9.662;2023-07-22T02:25:49;100641.75;;;19.58;48.12
11648;BME280;5880;52.342;9.662;2023-07-22T02:28:15;100643.19;;;19.56;48.41
11648;BME280;5880;52.342;9.662;2023-07-22T02:30:42;100640.69;;;19.54;48.33
11648;BME280;5880;52.342;9.662;2023-07-22T02:33:08;100647.91;;;19.55;48.16
11648;BME280;5880;52.342;9.662;2023-07-22T02:35:34;100637.16;;;19.49;48.36
11648;BME280;5880;52.342;9.662;2023-07-22T02:37:59;100644.88;;;19.52;48.24
11648;BME280;5880;52.342;9.662;2023-07-22T02:40:27;100650.41;;;19.52;48.43
11648;BME280;5880;52.342;9.662;2023-07-22T02:42:52;100643.50;;;19.49;48.21
11648;BME280;5880;52.342;9.662;2023-07-22T02:45:18;100652.13;;;19.48;48.44
11648;BME280;5880;52.342;9.662;2023-07-22T02:47:44;100652.13;;;19.48;48.41
11648;BME280;5880;52.342;9.662;2023-07-22T02:50:09;100652.69;;;19.45;48.53
11648;BME280;5880;52.342;9.662;2023-07-22T02:52:36;100663.19;;;19.48;48.39
11648;BME280;5880;52.342;9.662;2023-07-22T02:57:37;100666.22;;;19.51;48.43
11648;BME280;5880;52.342;9.662;2023-07-22T03:00:04;100664.59;;;19.50;48.20
11648;BME280;5880;52.342;9.662;2023-07-22T03:02:38;100669.00;;;19.51;48.50
11648;BME280;5880;52.342;9.662;2023-07-22T03:05:08;100664.59;;;19.50;48.17
11648;BME280;5880;52.342;9.662;2023-07-22T03:07:34;100664.88;;;19.49;48.35
11648;BME280;5880;52.342;9.662;2023-07-22T03:10:00;100666.28;;;19.46;48.25
11648;BME280;5880;52.342;9.662;2023-07-22T03:12:26;100675.69;;;19.45;48.40
11648;BME280;5880;52.342;9.662;2023-07-22T03:14:53;100666.03;;;19.43;48.19
11648;BME280;5880;52.342;9.662;2023-07-22T03:17:19;100661.66;;;19.36;48.16
11648;BME280;5880;52.342;9.662;2023-07-22T03:19:45;100672.44;;;19.38;48.18
11648;BME280;5880;52.342;9.662;2023-07-22T03:22:14;100679.94;;;19.37;48.18
11648;BME280;5880;52.342;9.662;2023-07-22T03:24:42;100671.38;;;19.34;48.41
11648;BME280;5880;52.342;9.662;2023-07-22T03:27:07;100672.75;;;19.31;48.37
11648;BME280;5880;52.342;9.662;2023-07-22T03:29:33;100676.94;;;19.34;48.21
11648;BME280;5880;52.342;9.662;2023-07-22T03:31:59;100682.75;;;19.32;48.25
11648;BME280;5880;52.342;9.662;2023-07-22T03:34:29;100676.38;;;19.32;48.19
11648;BME280;5880;52.342;9.662;2023-07-22T03:36:55;100685.25;;;19.29;48.43
11648;BME280;5880;52.342;9.662;2023-07-22T03:39:21;100695.22;;;19.30;48.39
11648;BME280;5880;52.342;9.662;2023-07-22T03:41:47;100697.47;;;19.28;48.30
11648;BME280;5880;52.342;9.662;2023-07-22T03:44:13;100696.38;;;19.24;48.41
11648;BME280;5880;52.342;9.662;2023-07-22T03:46:38;100692.78;;;19.23;48.31
11648;BME280;5880;52.342;9.662;2023-07-22T03:49:04;100694.75;;;19.23;48.29
11648;BME280;5880;52.342;9.662;2023-07-22T03:51:30;100698.59;;;19.22;48.54
11648;BME280;5880;52.342;9.662;2023-07-22T03:53:56;100690.59;;;19.20;48.53
11648;BME280;5880;52.342;9.662;2023-07-22T03:56:21;100695.28;;;19.19;48.50
11648;BME280;5880;52.342;9.662;2023-07-22T03:58:50;100689.47;;;19.21;48.50
11648;BME280;5880;52.342;9.662;2023-07-22T04:01:15;100694.47;;;19.19;48.66
11648;BME280;5880;52.342;9.662;2023-07-22T04:03:41;100698.06;;;19.19;48.58
11648;BME280;5880;52.342;9.662;2023-07-22T04:06:07;100699.44;;;19.22;48.66
11648;BME280;5880;52.342;9.662;2023-07-22T04:08:33;100695.56;;;19.23;48.67
11648;BME280;5880;52.342;9.662;2023-07-22T04:10:58;100697.50;;;19.23;48.54
11648;BME280;5880;52.342;9.662;2023-07-22T04:13:26;100697.50;;;19.23;48.63
11648;BME280;5880;52.342;9.662;2023-07-22T04:15:52;100701.91;;;19.24;48.87
11648;BME280;5880;52.342;9.662;2023-07-22T04:18:19;100699.97;;;19.24;48.87
11648;BME280;5880;52.342;9.662;2023-07-22T04:20:46;100697.78;;;19.21;48.97
11648;BME280;5880;52.342;9.662;2023-07-22T04:23:13;100699.16;;;19.24;48.98
11648;BME280;5880;52.342;9.662;2023-07-22T04:25:43;100704.69;;;19.24;48.92
11648;BME280;5880;52.342;9.662;2023-07-22T04:28:09;100704.09;;;19.27;48.95
11648;BME280;5880;52.342;9.662;2023-07-22T04:30:36;100703.00;;;19.28;48.78
11648;BME280;5880;52.342;9.662;2023-07-22T04:33:03;100705.78;;;19.28;48.94
11648;BME280;5880;52.342;9.662;2023-07-22T04:35:36;100710.72;;;19.31;48.96
11648;BME280;5880;52.342;9.662;2023-07-22T04:38:02;100711.56;;;19.31;49.11
11648;BME280;5880;52.342;9.662;2023-07-22T04:40:29;100710.19;;;19.34;49.13
11648;BME280;5880;52.342;9.662;2023-07-22T04:42:56;100709.59;;;19.37;49.19
11648;BME280;5880;52.342;9.662;2023-07-22T04:45:24;100713.44;;;19.41;49.26
11648;BME280;5880;52.342;9.662;2023-07-22T04:47:50;100713.13;;;19.43;49.28
11648;BME280;5880;52.342;9.662;2023-07-22T04:50:17;100710.91;;;19.45;49.41
11648;BME280;5880;52.342;9.662;2023-07-22T04:52:46;100717.81;;;19.47;49.45
11648;BME280;5880;52.342;9.662;2023-07-22T04:55:13;100717.25;;;19.50;49.43
11648;BME280;5880;52.342;9.662;2023-07-22T04:57:41;100723.03;;;19.54;49.48
11648;BME280;5880;52.342;9.662;2023-07-22T05:00:08;100711.34;;;19.57;49.50
11648;BME280;5880;52.342;9.662;2023-07-22T05:02:43;100716.88;;;19.62;49.74
11648;BME280;5880;52.342;9.662;2023-07-22T05:05:15;100711.84;;;19.69;49.91
11648;BME280;5880;52.342;9.662;2023-07-22T05:07:42;100713.75;;;19.74;50.08
11648;BME280;5880;52.342;9.662;2023-07-22T05:10:09;100708.16;;;19.79;49.92
11648;BME280;5880;52.342;9.662;2023-07-22T05:12:39;100714.19;;;19.86;50.13
11648;BME280;5880;52.342;9.662;2023-07-22T05:15:06;100715.75;;;19.92;49.95
11648;BME280;5880;52.342;9.662;2023-07-22T05:17:32;100720.22;;;19.93;49.87
11648;BME280;5880;52.342;9.662;2023-07-22T05:19:58;100715.72;;;19.97;49.92
11648;BME280;5880;52.342;9.662;2023-07-22T05:22:24;100725.34;;;20.05;50.02
11648;BME280;5880;52.342;9.662;2023-07-22T05:24:50;100724.75;;;20.08;49.89
11648;BME280;5880;52.342;9.662;2023-07-22T05:27:17;100724.47;;;20.10;49.89
11648;BME280;5880;52.342;9.662;2023-07-22T05:29:43;100735.50;;;20.15;49.84
11648;BME280;5880;52.342;9.662;2023-07-22T05:32:10;100736.06;;;20.17;49.99
11648;BME280;5880;52.342;9.662;2023-07-22T05:34:36;100733.81;;;20.19;49.94
11648;BME280;5880;52.342;9.662;2023-07-22T05:37:01;100739.00;;;20.26;49.84
11648;BME280;5880;52.342;9.662;2023-07-22T05:39:27;100733.69;;;20.29;50.04
11648;BME280;5880;52.342;9.662;2023-07-22T05:41:53;100731.16;;;20.33;50.05
11648;BME280;5880;52.342;9.662;2023-07-22T05:44:19;100738.53;;;20.42;50.33
11648;BME280;5880;52.342;9.662;2023-07-22T05:46:44;100732.91;;;20.48;50.13
11648;BME280;5880;52.342;9.662;2023-07-22T05:49:10;100741.47;;;20.56;50.42
11648;BME280;5880;52.342;9.662;2023-07-22T05:51:38;100733.06;;;20.61;50.46
11648;BME280;5880;52.342;9.662;2023-07-22T05:54:04;100739.09;;;20.69;50.61
11648;BME280;5880;52.342;9.662;2023-07-22T05:56:30;100735.94;;;20.75;50.17
11648;BME280;5880;52.342;9.662;2023-07-22T05:58:56;100740.31;;;20.81;50.51
11648;BME280;5880;52.342;9.662;2023-07-22T06:01:23;100739.63;;;20.90;50.32
11648;BME280;5880;52.342;9.662;2023-07-22T06:03:50;100739.56;;;20.95;50.55
11648;BME280;5880;52.342;9.662;2023-07-22T06:06:16;100729.34;;;21.09;50.79
11648;BME280;5880;52.342;9.662;2023-07-22T06:08:42;100731.38;;;21.22;50.77
11648;BME280;5880;52.342;9.662;2023-07-22T06:11:07;100735.06;;;21.37;50.72
11648;BME280;5880;52.342;9.662;2023-07-22T06:13:33;100742.66;;;21.50;50.70
11648;BME280;5880;52.342;9.662;2023-07-22T06:15:59;100742.81;;;21.59;50.30
11648;BME280;5880;52.342;9.662;2023-07-22T06:18:24;100742.53;;;21.74;50.07
11648;BME280;5880;52.342;9.662;2023-07-22T06:20:51;100749.28;;;21.87;50.42
11648;BME280;5880;52.342;9.662;2023-07-22T06:23:16;100753.25;;;22.13;51.08
11648;BME280;5880;52.342;9.662;2023-07-22T06:25:42;100754.00;;;22.61;51.70
11648;BME280;5880;52.342;9.662;2023-07-22T06:28:08;100749.25;;;23.03;50.83
11648;BME280;5880;52.342;9.662;2023-07-22T06:30:34;100747.97;;;23.23;50.03
11648;BME280;5880;52.342;9.662;2023-07-22T06:33:00;100745.09;;;23.36;49.81
11648;BME280;5880;52.342;9.662;2023-07-22T06:35:26;100737.56;;;23.59;49.80
11648;BME280;5880;52.342;9.662;2023-07-22T06:37:52;100750.59;;;23.87;49.40
11648;BME280;5880;52.342;9.662;2023-07-22T06:40:18;100743.50;;;24.12;49.46
11648;BME280;5880;52.342;9.662;2023-07-22T06:42:43;100749.88;;;24.43;49.57
11648;BME280;5880;52.342;9.662;2023-07-22T06:45:09;100752.66;;;24.75;49.26
11648;BME280;5880;52.342;9.662;2023-07-22T06:47:35;100754.53;;;25.05;48.64
11648;BME280;5880;52.342;9.662;2023-07-22T06:50:05;100743.03;;;25.33;48.50
11648;BME280;5880;52.342;9.662;2023-07-22T06:52:32;100751.41;;;25.68;48.15
11648;BME280;5880;52.342;9.662;2023-07-22T06:54:58;100750.06;;;25.92;47.32
11648;BME280;5880;52.342;9.662;2023-07-22T06:57:24;100748.22;;;26.13;46.67
11648;BME280;5880;52.342;9.662;2023-07-22T06:59:55;100751.75;;;26.31;46.06
11648;BME280;5880;52.342;9.662;2023-07-22T07:02:21;100754.34;;;26.45;45.54
11648;BME280;5880;52.342;9.662;2023-07-22T07:04:47;100755.97;;;26.55;45.64
11648;BME280;5880;52.342;9.662;2023-07-22T07:07:14;100759.63;;;26.55;45.10
11648;BME280;5880;52.342;9.662;2023-07-22T07:09:39;100762.75;;;26.45;44.75
11648;BME280;5880;52.342;9.662;2023-07-22T07:12:06;100760.31;;;26.35;44.71
11648;BME280;5880;52.342;9.662;2023-07-22T07:14:36;100755.91;;;26.25;44.50
11648;BME280;5880;52.342;9.662;2023-07-22T07:17:02;100756.75;;;26.17;44.51
11648;BME280;5880;52.342;9.662;2023-07-22T07:19:28;100749.22;;;26.08;44.41
11648;BME280;5880;52.342;9.662;2023-07-22T07:21:54;100747.94;;;25.97;44.33
11648;BME280;5880;52.342;9.662;2023-07-22T07:24:20;100747.94;;;25.88;44.30
11648;BME280;5880;52.342;9.662;2023-07-22T07:26:46;100754.19;;;25.85;44.58
11648;BME280;5880;52.342;9.662;2023-07-22T07:29:12;100753.22;;;25.90;44.39
11648;BME280;5880;52.342;9.662;2023-07-22T07:31:38;100759.94;;;26.06;43.89
11648;BME280;5880;52.342;9.662;2023-07-22T07:34:04;100762.56;;;26.03;43.36
11648;BME280;5880;52.342;9.662;2023-07-22T07:36:31;100747.75;;;25.94;43.21
11648;BME280;5880;52.342;9.662;2023-07-22T07:38:57;100741.84;;;25.86;43.92
11648;BME280;5880;52.342;9.662;2023-07-22T07:41:23;100761.91;;;25.80;43.35
11648;BME280;5880;52.342;9.662;2023-07-22T07:43:48;100764.56;;;25.67;43.00
11648;BME280;5880;52.342;9.662;2023-07-22T07:46:25;100761.13;;;25.53;42.81
11648;BME280;5880;52.342;9.662;2023-07-22T07:48:56;100764.91;;;25.40;42.74
11648;BME280;5880;52.342;9.662;2023-07-22T07:51:24;100758.84;;;25.29;42.78
11648;BME280;5880;52.342;9.662;2023-07-22T07:53:51;100758.00;;;25.20;43.07
11648;BME280;5880;52.342;9.662;2023-07-22T07:56:19;100763.75;;;25.15;43.01
11648;BME280;5880;52.342;9.662;2023-07-22T07:58:47;100770.94;;;25.07;43.19
11648;BME280;5880;52.342;9.662;2023-07-22T08:01:13;100763.72;;;24.97;43.48
11648;BME280;5880;52.342;9.662;2023-07-22T08:03:41;100766.81;;;24.96;43.27
11648;BME280;5880;52.342;9.662;2023-07-22T08:06:11;100775.03;;;24.92;43.30
11648;BME280;5880;52.342;9.662;2023-07-22T08:08:38;100763.84;;;24.83;43.61
11648;BME280;5880;52.342;9.662;2023-07-22T08:11:11;100776.34;;;24.86;43.40
11648;BME280;5880;52.342;9.662;2023-07-22T08:13:40;100767.28;;;24.80;43.23
11648;BME280;5880;52.342;9.662;2023-07-22T08:16:09;100766.44;;;24.71;43.16
11648;BME280;5880;52.342;9.662;2023-07-22T08:18:36;100770.88;;;24.63;43.23
11648;BME280;5880;52.342;9.662;2023-07-22T08:21:03;100775.94;;;24.61;43.89
11648;BME280;5880;52.342;9.662;2023-07-22T08:23:30;100768.06;;;24.63;43.43
11648;BME280;5880;52.342;9.662;2023-07-22T08:25:56;100772.00;;;24.62;43.73
11648;BME280;5880;52.342;9.662;2023-07-22T08:28:22;100768.53;;;24.57;43.54
11648;BME280;5880;52.342;9.662;2023-07-22T08:30:48;100770.16;;;24.58;43.57
11648;BME280;5880;52.342;9.662;2023-07-22T08:33:15;100771.66;;;24.55;43.61
11648;BME280;5880;52.342;9.662;2023-07-22T08:35:42;100767.38;;;24.49;43.24
11648;BME280;5880;52.342;9.662;2023-07-22T08:38:08;100781.34;;;24.49;43.31
11648;BME280;5880;52.342;9.662;2023-07-22T08:40:39;100779.00;;;24.51;43.34
11648;BME280;5880;52.342;9.662;2023-07-22T08:43:08;100782.66;;;24.52;43.68
11648;BME280;5880;52.342;9.662;2023-07-22T08:45:36;100767.22;;;24.54;43.77
11648;BME280;5880;52.342;9.662;2023-07-22T08:48:07;100780.84;;;24.56;43.30
11648;BME280;5880;52.342;9.662;2023-07-22T08:50:55;100768.50;;;24.48;43.25
11648;BME280;5880;52.342;9.662;2023-07-22T08:53:23;100772.06;;;24.40;43.48
11648;BME280;5880;52.342;9.662;2023-07-22T08:55:51;100775.81;;;24.35;43.27
11648;BME280;5880;52.342;9.662;2023-07-22T08:58:17;100777.75;;;24.35;43.63
11648;BME280;5880;52.342;9.662;2023-07-22T09:00:43;100785.53;;;24.38;43.47
11648;BME280;5880;52.342;9.662;2023-07-22T09:03:11;100774.00;;;24.39;43.45
11648;BME280;5880;52.342;9.662;2023-07-22T09:05:37;100764.50;;;24.40;43.32
11648;BME280;5880;52.342;9.662;2023-07-22T09:08:07;100770.75;;;24.46;43.28
11648;BME280;5880;52.342;9.662;2023-07-22T09:10:33;100771.72;;;24.41;43.10
11648;BME280;5880;52.342;9.662;2023-07-22T09:13:00;100769.94;;;24.46;43.54
11648;BME280;5880;52.342;9.662;2023-07-22T09:15:27;100769.31;;;24.49;43.72
11648;BME280;5880;52.342;9.662;2023-07-22T09:17:53;100772.00;;;24.54;43.31
11648;BME280;5880;52.342;9.662;2023-07-22T09:20:20;100766.06;;;24.55;43.18
11648;BME280;5880;52.342;9.662;2023-07-22T09:22:49;100767.22;;;24.54;42.90
11648;BME280;5880;52.342;9.662;2023-07-22T09:25:21;100764.94;;;24.56;43.13
11648;BME280;5880;52.342;9.662;2023-07-22T09:27:51;100766.88;;;24.56;42.84
11648;BME280;5880;52.342;9.662;2023-07-22T09:30:32;100759.81;;;24.50;43.13
11648;BME280;5880;52.342;9.662;2023-07-22T09:33:03;100763.91;;;24.52;42.92
11648;BME280;5880;52.342;9.662;2023-07-22T09:35:47;100755.22;;;24.54;43.17
11648;BME280;5880;52.342;9.662;2023-07-22T09:38:13;100756.03;;;24.54;43.13
11648;BME280;5880;52.342;9.662;2023-07-22T09:40:41;100751.13;;;24.60;43.19
11648;BME280;5880;52.342;9.662;2023-07-22T09:43:10;100757.56;;;24.69;43.32
11648;BME280;5880;52.342;9.662;2023-07-22T09:45:37;100750.34;;;24.77;43.79
11648;BME280;5880;52.342;9.662;2023-07-22T09:48:04;100754.47;;;24.88;43.73
11648;BME280;5880;52.342;9.662;2023-07-22T09:50:31;100758.13;;;24.97;43.22
11648;BME280;5880;52.342;9.662;2023-07-22T09:52:58;100753.22;;;25.03;43.31
11648;BME280;5880;52.342;9.662;2023-07-22T09:55:27;100760.44;;;25.04;42.59
11648;BME280;5880;52.342;9.662;2023-07-22T09:58:01;100751.03;;;25.00;42.62
11648;BME280;5880;52.342;9.662;2023-07-22T10:00:34;100743.63;;;24.95;42.26
11648;BME280;5880;52.342;9.662;2023-07-22T10:03:02;100741.81;;;24.91;42.19
11648;BME280;5880;52.342;9.662;2023-07-22T10:05:34;100741.81;;;24.91;42.67
11648;BME280;5880;52.342;9.662;2023-07-22T10:08:02;100751.06;;;24.91;42.83
11648;BME280;5880;52.342;9.662;2023-07-22T10:10:37;100740.34;;;24.93;42.56
11648;BME280;5880;52.342;9.662;2023-07-22T10:13:04;100736.06;;;24.96;42.62
11648;BME280;5880;52.342;9.662;2023-07-22T10:15:32;100743.16;;;25.02;42.21
11648;BME280;5880;52.342;9.662;2023-07-22T10:18:01;100736.75;;;25.10;42.28
11648;BME280;5880;52.342;9.662;2023-07-22T10:20:29;100746.81;;;25.20;42.62
11648;BME280;5880;52.342;9.662;2023-07-22T10:22:56;100727.22;;;25.28;42.73
11648;BME280;5880;52.342;9.662;2023-07-22T10:25:22;100735.00;;;25.40;42.58
11648;BME280;5880;52.342;9.662;2023-07-22T10:27:51;100731.84;;;25.51;42.37
11648;BME280;5880;52.342;9.662;2023-07-22T10:30:18;100736.59;;;25.59;42.00
11648;BME280;5880;52.342;9.662;2023-07-22T10:32:48;100738.41;;;25.63;42.24
11648;BME280;5880;52.342;9.662;2023-07-22T10:38:15;100733.78;;;25.67;41.81
11648;BME280;5880;52.342;9.662;2023-07-22T10:40:52;100734.97;;;25.66;41.70
11648;BME280;5880;52.342;9.662;2023-07-22T10:43:35;100740.56;;;25.66;41.74
11648;BME280;5880;52.342;9.662;2023-07-22T10:46:11;100733.66;;;25.64;42.00
11648;BME280;5880;52.342;9.662;2023-07-22T10:48:40;100738.25;;;25.68;41.64
11648;BME280;5880;52.342;9.662;2023-07-22T10:51:15;100738.41;;;25.72;41.89
11648;BME280;5880;52.342;9.662;2023-07-22T10:53:50;100735.41;;;25.77;41.83
11648;BME280;5880;52.342;9.662;2023-07-22T10:56:21;100731.47;;;25.78;41.17
11648;BME280;5880;52.342;9.662;2023-07-22T11:04:26;100726.38;;;25.80;41.35
11648;BME280;5880;52.342;9.662;2023-07-22T11:07:05;100712.88;;;25.74;41.34
11648;BME280;5880;52.342;9.662;2023-07-22T11:12:05;100713.84;;;25.78;41.11
11648;BME280;5880;52.342;9.662;2023-07-22T11:14:34;100718.63;;;25.77;41.15
11648;BME280;5880;52.342;9.662;2023-07-22T11:17:03;100719.44;;;25.78;40.88
11648;BME280;5880;52.342;9.662;2023-07-22T11:19:30;100714.88;;;25.73;41.20
11648;BME280;5880;52.342;9.662;2023-07-22T11:21:56;100720.59;;;25.77;40.94
11648;BME280;5880;52.342;9.662;2023-07-22T11:24:24;100719.63;;;25.73;40.44
11648;BME280;5880;52.342;9.662;2023-07-22T11:26:51;100715.69;;;25.65;40.17
11648;BME280;5880;52.342;9.662;2023-07-22T11:29:17;100717.34;;;25.57;40.33
11648;BME280;5880;52.342;9.662;2023-07-22T11:31:46;100711.59;;;25.45;40.03
11648;BME280;5880;52.342;9.662;2023-07-22T11:34:17;100708.31;;;25.34;40.49
11648;BME280;5880;52.342;9.662;2023-07-22T11:36:44;100710.94;;;25.31;40.67
11648;BME280;5880;52.342;9.662;2023-07-22T11:39:13;100702.06;;;25.28;40.96
11648;BME280;5880;52.342;9.662;2023-07-22T11:41:39;100702.06;;;25.28;40.86
11648;BME280;5880;52.342;9.662;2023-07-22T11:44:11;100698.44;;;25.28;41.24
11648;BME280;5880;52.342;9.662;2023-07-22T11:46:58;100702.88;;;25.38;41.46
11648;BME280;5880;52.342;9.662;2023-07-22T11:49:32;100705.34;;;25.39;40.81
11648;BME280;5880;52.342;9.662;2023-07-22T11:52:07;100705.34;;;25.39;40.43
11648;BME280;5880;52.342;9.662;2023-07-22T11:54:37;100704.38;;;25.35;40.79
11648;BME280;5880;52.342;9.662;2023-07-22T11:59:48;100697.81;;;25.31;40.48
11648;BME280;5880;52.342;9.662;2023-07-22T12:02:22;100697.13;;;25.25;40.88
11648;BME280;5880;52.342;9.662;2023-07-22T12:04:59;100709.81;;;25.23;40.59
11648;BME280;5880;52.342;9.662;2023-07-22T12:07:30;100701.28;;;25.19;40.97
11648;BME280;5880;52.342;9.662;2023-07-22T12:09:58;100700.44;;;25.19;40.77
11648;BME280;5880;52.342;9.662;2023-07-22T12:12:45;100698.78;;;25.18;40.86
11648;BME280;5880;52.342;9.662;2023-07-22T12:15:18;100696.00;;;25.18;40.80
11648;BME280;5880;52.342;9.662;2023-07-22T12:18:02;100682.66;;;25.23;41.54
11648;BME280;5880;52.342;9.662;2023-07-22T12:20:31;100693.03;;;25.32;41.79
11648;BME280;5880;52.342;9.662;2023-07-22T12:22:59;100685.47;;;25.41;41.71
11648;BME280;5880;52.342;9.662;2023-07-22T12:25:25;100682.16;;;25.47;41.45
11648;BME280;5880;52.342;9.662;2023-07-22T12:27:51;100682.13;;;25.56;41.73
11648;BME280;5880;52.342;9.662;2023-07-22T12:30:17;100679.00;;;25.66;42.00
11648;BME280;5880;52.342;9.662;2023-07-22T12:32:43;100671.84;;;25.78;42.00
11648;BME280;5880;52.342;9.662;2023-07-22T12:35:09;100675.31;;;25.92;41.98
11648;BME280;5880;52.342;9.662;2023-07-22T12:37:36;100668.84;;;26.00;41.72
11648;BME280;5880;52.342;9.662;2023-07-22T12:40:02;100668.34;;;26.07;41.71
11648;BME280;5880;52.342;9.662;2023-07-22T12:42:34;100669.31;;;26.11;41.50
11648;BME280;5880;52.342;9.662;2023-07-22T12:45:00;100675.03;;;26.15;40.84
11648;BME280;5880;52.342;9.662;2023-07-22T12:47:26;100666.66;;;26.15;40.93
11648;BME280;5880;52.342;9.662;2023-07-22T12:49:51;100672.41;;;26.18;41.09
11648;BME280;5880;52.342;9.662;2023-07-22T12:52:17;100674.84;;;26.20;40.59
11648;BME280;5880;52.342;9.662;2023-07-22T12:54:43;100666.44;;;26.20;40.72
11648;BME280;5880;52.342;9.662;2023-07-22T12:57:08;100658.91;;;26.20;40.56
11648;BME280;5880;52.342;9.662;2023-07-22T12:59:34;100657.22;;;26.19;40.44
11648;BME280;5880;52.342;9.662;2023-07-22T13:02:00;100659.38;;;26.22;40.21
11648;BME280;5880;52.342;9.662;2023-07-22T13:04:25;100658.53;;;26.22;40.20
11648;BME280;5880;52.342;9.662;2023-07-22T13:06:51;100652.59;;;26.23;40.29
11648;BME280;5880;52.342;9.662;2023-07-22T13:09:18;100646.31;;;26.26;39.90
11648;BME280;5880;52.342;9.662;2023-07-22T13:11:44;100642.38;;;26.27;40.09
11648;BME280;5880;52.342;9.662;2023-07-22T13:14:10;100638.69;;;26.36;40.07
11648;BME280;5880;52.342;9.662;2023-07-22T13:16:36;100636.53;;;26.41;39.74
11648;BME280;5880;52.342;9.662;2023-07-22T13:19:01;100638.16;;;26.42;39.72